createdAt,value
2022-11-21T00:00:37.184Z,0
2022-11-21T00:01:37.454Z,0
2022-11-21T00:02:37.233Z,0
2022-11-21T00:03:36.999Z,0
2022-11-21T00:04:37.173Z,0
2022-11-21T00:05:37.010Z,0
2022-11-21T00:06:36.239Z,0
2022-11-21T00:07:37.032Z,0
2022-11-21T00:08:36.531Z,0
2022-11-21T00:09:36.811Z,0
2022-11-21T00:10:36.829Z,0
2022-11-21T00:11:36.569Z,0
2022-11-21T00:12:37.117Z,0
2022-11-21T00:13:36.871Z,0
2022-11-21T00:14:37.456Z,0
2022-11-21T00:15:36.886Z,0
2022-11-21T00:16:38.839Z,0
2022-11-21T00:17:37.543Z,0
2022-11-21T00:18:37.460Z,0
2022-11-21T00:19:37.490Z,0
2022-11-21T00:20:37.303Z,0
2022-11-21T00:21:37.482Z,0
2022-11-21T00:22:37.273Z,0
2022-11-21T00:23:37.260Z,0
2022-11-21T00:24:37.774Z,0
2022-11-21T00:25:37.559Z,0
2022-11-21T00:26:37.314Z,0
2022-11-21T00:27:37.051Z,0
2022-11-21T00:28:37.327Z,0
2022-11-21T00:29:37.344Z,0
2022-11-21T00:30:37.624Z,0
2022-11-21T00:31:37.377Z,0
2022-11-21T00:32:36.869Z,0
2022-11-21T00:33:37.390Z,0
2022-11-21T00:34:37.448Z,0
2022-11-21T00:35:37.694Z,0
2022-11-21T00:36:37.437Z,0
2022-11-21T00:37:37.739Z,0
2022-11-21T00:38:37.475Z,0
2022-11-21T00:39:37.213Z,0
2022-11-21T00:40:37.244Z,0
2022-11-21T00:41:37.786Z,0
2022-11-21T00:42:36.946Z,0
2022-11-21T00:43:37.536Z,0
2022-11-21T00:44:37.965Z,0
2022-11-21T00:45:37.577Z,0
2022-11-21T00:46:37.605Z,0
2022-11-21T00:47:37.332Z,0
2022-11-21T00:48:37.625Z,0
2022-11-21T00:49:37.895Z,0
2022-11-21T00:50:37.649Z,0
2022-11-21T00:51:37.658Z,0
2022-11-21T00:52:37.666Z,0
2022-11-21T00:53:37.984Z,0
2022-11-21T00:54:38.437Z,0
2022-11-21T00:55:37.442Z,0
2022-11-21T00:56:37.472Z,0
2022-11-21T00:57:37.469Z,0
2022-11-21T00:58:37.759Z,0
2022-11-21T00:59:37.496Z,0
2022-11-21T01:00:38.131Z,0
2022-11-21T01:01:37.638Z,0
2022-11-21T01:02:38.130Z,0
2022-11-21T01:03:37.837Z,0
2022-11-21T01:04:38.208Z,0
2022-11-21T01:05:38.109Z,0
2022-11-21T01:06:37.866Z,0
2022-11-21T01:07:38.143Z,0
2022-11-21T01:08:37.638Z,0
2022-11-21T01:09:37.951Z,0
2022-11-21T01:10:37.935Z,0
2022-11-21T01:11:37.670Z,0
2022-11-21T01:12:38.339Z,0
2022-11-21T01:13:37.700Z,0
2022-11-21T01:14:38.640Z,0
2022-11-21T01:15:37.725Z,0
2022-11-21T01:16:38.002Z,0
2022-11-21T01:17:38.019Z,0
2022-11-21T01:18:38.043Z,0
2022-11-21T01:19:38.049Z,0
2022-11-21T01:20:37.536Z,0
2022-11-21T01:21:38.010Z,0
2022-11-21T01:22:37.831Z,0
2022-11-21T01:23:38.366Z,0
2022-11-21T01:24:38.241Z,0
2022-11-21T01:25:38.128Z,0
2022-11-21T01:26:37.889Z,0
2022-11-21T01:27:38.415Z,0
2022-11-21T01:28:38.549Z,0
2022-11-21T01:29:38.446Z,0
2022-11-21T01:30:38.451Z,0
2022-11-21T01:31:37.956Z,0
2022-11-21T01:32:38.482Z,0
2022-11-21T01:33:38.229Z,0
2022-11-21T01:34:38.839Z,0
2022-11-21T01:35:38.010Z,0
2022-11-21T01:36:38.287Z,0
2022-11-21T01:37:38.299Z,0
2022-11-21T01:38:38.604Z,0
2022-11-21T01:39:38.329Z,0
2022-11-21T01:40:38.657Z,0
2022-11-21T01:41:38.227Z,0
2022-11-21T01:42:38.571Z,0
2022-11-21T01:43:38.395Z,0
2022-11-21T01:44:39.132Z,0
2022-11-21T01:45:38.407Z,0
2022-11-21T01:46:38.424Z,0
2022-11-21T01:47:38.700Z,0
2022-11-21T01:48:38.458Z,0
2022-11-21T01:49:38.732Z,0
2022-11-21T01:50:38.738Z,0
2022-11-21T01:51:38.228Z,0
2022-11-21T01:52:38.697Z,0
2022-11-21T01:53:38.264Z,0
2022-11-21T01:54:38.917Z,0
2022-11-21T01:55:38.552Z,0
2022-11-21T01:56:38.558Z,0
2022-11-21T01:57:38.324Z,0
2022-11-21T01:58:38.862Z,0
2022-11-21T01:59:38.600Z,0
2022-11-21T02:00:39.234Z,0
2022-11-21T02:01:39.115Z,0
2022-11-21T02:02:38.643Z,0
2022-11-21T02:03:38.410Z,0
2022-11-21T02:04:38.600Z,0
2022-11-21T02:05:38.959Z,0
2022-11-21T02:06:38.708Z,0
2022-11-21T02:07:39.125Z,0
2022-11-21T02:08:38.486Z,0
2022-11-21T02:09:38.740Z,0
2022-11-21T02:10:38.768Z,0
2022-11-21T02:11:39.073Z,0
2022-11-21T02:12:39.037Z,0
2022-11-21T02:13:38.292Z,0
2022-11-21T02:14:39.179Z,0
2022-11-21T02:15:38.839Z,0
2022-11-21T02:16:39.232Z,0
2022-11-21T02:17:38.351Z,0
2022-11-21T02:18:39.133Z,0
2022-11-21T02:19:39.162Z,0
2022-11-21T02:20:38.655Z,0
2022-11-21T02:21:38.916Z,0
2022-11-21T02:22:38.707Z,0
2022-11-21T02:23:38.229Z,0
2022-11-21T02:24:39.420Z,0
2022-11-21T02:25:38.982Z,0
2022-11-21T02:26:38.989Z,0
2022-11-21T02:27:39.012Z,0
2022-11-21T02:28:39.018Z,0
2022-11-21T02:29:39.031Z,0
2022-11-21T02:30:39.302Z,0
2022-11-21T02:31:38.806Z,0
2022-11-21T02:32:39.479Z,0
2022-11-21T02:33:39.086Z,0
2022-11-21T02:34:39.054Z,0
2022-11-21T02:35:38.734Z,0
2022-11-21T02:36:38.881Z,0
2022-11-21T02:37:39.138Z,0
2022-11-21T02:38:38.634Z,0
2022-11-21T02:39:38.911Z,0
2022-11-21T02:40:39.189Z,0
2022-11-21T02:41:38.946Z,0
2022-11-21T02:42:39.151Z,0
2022-11-21T02:43:39.235Z,0
2022-11-21T02:44:39.530Z,0
2022-11-21T02:45:39.510Z,0
2022-11-21T02:46:39.006Z,0
2022-11-21T02:47:39.015Z,0
2022-11-21T02:48:39.689Z,0
2022-11-21T02:49:39.582Z,0
2022-11-21T02:50:39.341Z,0
2022-11-21T02:51:39.100Z,0
2022-11-21T02:52:39.088Z,0
2022-11-21T02:53:39.385Z,0
2022-11-21T02:54:40.227Z,0
2022-11-21T02:55:39.140Z,0
2022-11-21T02:56:40.506Z,0
2022-11-21T02:57:39.425Z,0
2022-11-21T02:58:39.183Z,0
2022-11-21T02:59:39.730Z,0
2022-11-21T03:00:39.360Z,0
2022-11-21T03:01:39.443Z,0
2022-11-21T03:02:39.493Z,0
2022-11-21T03:03:39.501Z,0
2022-11-21T03:04:40.278Z,0
2022-11-21T03:05:39.571Z,0
2022-11-21T03:06:39.548Z,0
2022-11-21T03:07:39.619Z,0
2022-11-21T03:08:39.302Z,0
2022-11-21T03:09:39.873Z,0
2022-11-21T03:10:39.616Z,0
2022-11-21T03:11:39.876Z,0
2022-11-21T03:12:39.381Z,0
2022-11-21T03:13:39.144Z,0
2022-11-21T03:14:39.702Z,0
2022-11-21T03:15:39.424Z,0
2022-11-21T03:16:39.957Z,0
2022-11-21T03:17:39.454Z,0
2022-11-21T03:18:39.496Z,0
2022-11-21T03:19:39.730Z,0
2022-11-21T03:20:40.142Z,0
2022-11-21T03:21:40.013Z,0
2022-11-21T03:22:39.514Z,0
2022-11-21T03:23:39.528Z,0
2022-11-21T03:24:40.220Z,0
2022-11-21T03:25:40.076Z,0
2022-11-21T03:26:39.575Z,0
2022-11-21T03:27:39.600Z,0
2022-11-21T03:28:39.850Z,0
2022-11-21T03:29:39.894Z,0
2022-11-21T03:30:40.191Z,0
2022-11-21T03:31:40.166Z,0
2022-11-21T03:32:39.665Z,0
2022-11-21T03:33:40.182Z,0
2022-11-21T03:34:39.987Z,0
2022-11-21T03:35:39.714Z,0
2022-11-21T03:36:40.344Z,0
2022-11-21T03:37:39.989Z,0
2022-11-21T03:38:39.747Z,0
2022-11-21T03:39:40.023Z,0
2022-11-21T03:40:39.515Z,0
2022-11-21T03:41:39.541Z,0
2022-11-21T03:42:40.004Z,0
2022-11-21T03:43:40.072Z,0
2022-11-21T03:44:40.090Z,0
2022-11-21T03:45:39.851Z,0
2022-11-21T03:46:39.849Z,0
2022-11-21T03:47:40.396Z,0
2022-11-21T03:48:40.150Z,0
2022-11-21T03:49:39.908Z,0
2022-11-21T03:50:40.171Z,0
2022-11-21T03:51:39.928Z,0
2022-11-21T03:52:40.594Z,0
2022-11-21T03:53:40.471Z,0
2022-11-21T03:54:40.803Z,0
2022-11-21T03:55:40.509Z,0
2022-11-21T03:56:40.248Z,0
2022-11-21T03:57:40.281Z,0
2022-11-21T03:58:40.029Z,0
2022-11-21T03:59:40.576Z,0
2022-11-21T04:00:40.305Z,0
2022-11-21T04:01:46.381Z,0
2022-11-21T04:02:40.084Z,0
2022-11-21T04:03:39.843Z,0
2022-11-21T04:04:40.787Z,0
2022-11-21T04:05:40.637Z,0
2022-11-21T04:06:40.391Z,0
2022-11-21T04:07:40.178Z,0
2022-11-21T04:08:40.811Z,0
2022-11-21T04:09:40.697Z,0
2022-11-21T04:10:40.195Z,0
2022-11-21T04:11:40.465Z,0
2022-11-21T04:12:40.472Z,0
2022-11-21T04:13:40.254Z,0
2022-11-21T04:14:40.559Z,0
2022-11-21T04:15:40.534Z,0
2022-11-21T04:16:40.533Z,0
2022-11-21T04:17:40.290Z,0
2022-11-21T04:18:40.309Z,0
2022-11-21T04:19:40.317Z,0
2022-11-21T04:20:40.861Z,0
2022-11-21T04:21:40.864Z,0
2022-11-21T04:22:40.616Z,0
2022-11-21T04:23:40.632Z,0
2022-11-21T04:24:41.238Z,0
2022-11-21T04:25:40.919Z,0
2022-11-21T04:26:40.515Z,0
2022-11-21T04:27:40.687Z,0
2022-11-21T04:28:40.969Z,0
2022-11-21T04:29:40.715Z,0
2022-11-21T04:30:40.464Z,0
2022-11-21T04:31:39.981Z,0
2022-11-21T04:32:41.016Z,0
2022-11-21T04:33:40.507Z,0
2022-11-21T04:34:40.649Z,0
2022-11-21T04:35:41.063Z,0
2022-11-21T04:36:41.176Z,0
2022-11-21T04:37:41.090Z,0
2022-11-21T04:38:40.840Z,0
2022-11-21T04:39:40.588Z,0
2022-11-21T04:40:41.245Z,0
2022-11-21T04:41:40.884Z,0
2022-11-21T04:42:41.002Z,0
2022-11-21T04:43:40.939Z,0
2022-11-21T04:44:40.938Z,0
2022-11-21T04:45:41.202Z,0
2022-11-21T04:46:40.694Z,0
2022-11-21T04:47:40.969Z,0
2022-11-21T04:48:41.240Z,0
2022-11-21T04:49:41.295Z,0
2022-11-21T04:50:41.011Z,0
2022-11-21T04:51:41.015Z,0
2022-11-21T04:52:41.037Z,0
2022-11-21T04:53:48.139Z,0
2022-11-21T04:54:41.205Z,0
2022-11-21T04:55:41.105Z,0
2022-11-21T04:56:41.489Z,0
2022-11-21T04:57:41.105Z,0
2022-11-21T04:58:41.420Z,0
2022-11-21T04:59:40.880Z,0
2022-11-21T05:00:41.186Z,0
2022-11-21T05:01:41.242Z,0
2022-11-21T05:02:41.174Z,0
2022-11-21T05:03:41.188Z,0
2022-11-21T05:04:40.956Z,0
2022-11-21T05:05:41.488Z,0
2022-11-21T05:06:41.156Z,0
2022-11-21T05:07:41.294Z,0
2022-11-21T05:08:41.037Z,0
2022-11-21T05:09:41.012Z,0
2022-11-21T05:10:41.295Z,0
2022-11-21T05:11:41.315Z,0
2022-11-21T05:12:41.726Z,0
2022-11-21T05:13:40.827Z,0
2022-11-21T05:14:41.098Z,0
2022-11-21T05:15:41.106Z,0
2022-11-21T05:16:41.644Z,0
2022-11-21T05:17:41.404Z,0
2022-11-21T05:18:41.406Z,0
2022-11-21T05:19:41.691Z,0
2022-11-21T05:20:46.299Z,0
2022-11-21T05:21:41.453Z,0
2022-11-21T05:22:41.466Z,0
2022-11-21T05:23:41.227Z,0
2022-11-21T05:24:41.490Z,0
2022-11-21T05:25:41.766Z,0
2022-11-21T05:26:41.792Z,0
2022-11-21T05:27:41.537Z,0
2022-11-21T05:28:41.932Z,0
2022-11-21T05:29:41.306Z,0
2022-11-21T05:30:41.840Z,0
2022-11-21T05:31:41.341Z,0
2022-11-21T05:32:41.867Z,0
2022-11-21T05:33:41.874Z,0
2022-11-21T05:34:41.891Z,0
2022-11-21T05:35:48.200Z,0
2022-11-21T05:36:41.676Z,0
2022-11-21T05:37:41.689Z,0
2022-11-21T05:38:41.427Z,0
2022-11-21T05:39:41.972Z,0
2022-11-21T05:40:42.004Z,0
2022-11-21T05:41:41.461Z,0
2022-11-21T05:42:42.052Z,0
2022-11-21T05:43:41.508Z,0
2022-11-21T05:44:42.153Z,0
2022-11-21T05:45:41.303Z,0
2022-11-21T05:46:41.807Z,0
2022-11-21T05:47:42.083Z,0
2022-11-21T05:48:42.093Z,0
2022-11-21T05:49:41.586Z,0
2022-11-21T05:50:42.126Z,0
2022-11-21T05:51:42.165Z,0
2022-11-21T05:52:41.626Z,0
2022-11-21T05:53:42.176Z,0
2022-11-21T05:54:47.342Z,0
2022-11-21T05:55:41.676Z,0
2022-11-21T05:56:42.198Z,0
2022-11-21T05:57:42.009Z,0
2022-11-21T05:58:42.106Z,0
2022-11-21T05:59:42.253Z,0
2022-11-21T06:00:42.389Z,0
2022-11-21T06:01:42.271Z,0
2022-11-21T06:02:42.083Z,0
2022-11-21T06:03:41.568Z,0
2022-11-21T06:04:41.815Z,0
2022-11-21T06:05:41.805Z,0
2022-11-21T06:06:42.095Z,0
2022-11-21T06:07:42.433Z,0
2022-11-21T06:08:41.864Z,0
2022-11-21T06:09:42.132Z,0
2022-11-21T06:10:42.153Z,0
2022-11-21T06:11:42.160Z,0
2022-11-21T06:12:41.920Z,0
2022-11-21T06:13:41.935Z,0
2022-11-21T06:14:42.204Z,0
2022-11-21T06:15:42.204Z,0
2022-11-21T06:16:42.725Z,0
2022-11-21T06:17:42.647Z,0
2022-11-21T06:18:42.513Z,0
2022-11-21T06:19:42.280Z,0
2022-11-21T06:20:42.553Z,0
2022-11-21T06:21:42.100Z,0
2022-11-21T06:22:42.353Z,0
2022-11-21T06:23:42.328Z,0
2022-11-21T06:24:42.100Z,0
2022-11-21T06:25:42.360Z,0
2022-11-21T06:26:42.637Z,0
2022-11-21T06:27:42.377Z,0
2022-11-21T06:28:42.667Z,0
2022-11-21T06:29:42.440Z,0
2022-11-21T06:30:42.444Z,0
2022-11-21T06:31:42.444Z,0
2022-11-21T06:32:43.242Z,0
2022-11-21T06:33:42.469Z,0
2022-11-21T06:34:42.646Z,0
2022-11-21T06:35:42.489Z,0
2022-11-21T06:36:42.776Z,0
2022-11-21T06:37:42.536Z,0
2022-11-21T06:38:42.927Z,0
2022-11-21T06:39:42.563Z,0
2022-11-21T06:40:42.841Z,0
2022-11-21T06:41:42.852Z,0
2022-11-21T06:42:42.593Z,0
2022-11-21T06:43:42.618Z,0
2022-11-21T06:44:42.888Z,0
2022-11-21T06:45:42.379Z,0
2022-11-21T06:46:44.849Z,0
2022-11-21T06:47:42.668Z,0
2022-11-21T06:48:43.159Z,0
2022-11-21T06:49:42.966Z,0
2022-11-21T06:50:42.716Z,0
2022-11-21T06:51:42.471Z,0
2022-11-21T06:52:42.744Z,0
2022-11-21T06:53:43.028Z,0
2022-11-21T06:54:43.291Z,0
2022-11-21T06:55:42.894Z,0
2022-11-21T06:56:42.530Z,0
2022-11-21T06:57:42.828Z,0
2022-11-21T06:58:43.093Z,0
2022-11-21T06:59:42.849Z,0
2022-11-21T07:00:43.120Z,0
2022-11-21T07:01:43.676Z,0
2022-11-21T07:02:43.432Z,0
2022-11-21T07:03:42.901Z,0
2022-11-21T07:04:43.300Z,0
2022-11-21T07:05:43.180Z,0
2022-11-21T07:06:42.950Z,0
2022-11-21T07:07:43.476Z,0
2022-11-21T07:08:42.705Z,0
2022-11-21T07:09:43.665Z,0
2022-11-21T07:11:23.413Z,0
2022-11-21T07:11:43.292Z,0
2022-11-21T07:12:43.045Z,0
2022-11-21T07:13:42.774Z,0
2022-11-21T07:14:42.797Z,0
2022-11-21T07:15:43.334Z,0
2022-11-21T07:16:43.359Z,0
2022-11-21T07:17:42.837Z,0
2022-11-21T07:18:43.133Z,0
2022-11-21T07:19:49.531Z,0
2022-11-21T07:20:43.155Z,0
2022-11-21T07:21:43.194Z,0
2022-11-21T07:22:42.907Z,5
2022-11-21T07:23:43.453Z,5
2022-11-21T07:24:42.969Z,5
2022-11-21T07:25:46.244Z,5
2022-11-21T07:26:43.221Z,5
2022-11-21T07:27:42.995Z,5
2022-11-21T07:28:43.000Z,5
2022-11-21T07:29:43.013Z,5
2022-11-21T07:30:43.731Z,5
2022-11-21T07:31:43.717Z,5
2022-11-21T07:32:43.581Z,5
2022-11-21T07:33:43.658Z,5
2022-11-21T07:34:43.339Z,5
2022-11-21T07:35:43.444Z,5
2022-11-21T07:36:43.803Z,5
2022-11-21T07:37:43.982Z,5
2022-11-21T07:38:44.282Z,5
2022-11-21T07:39:43.399Z,5
2022-11-21T07:40:43.415Z,5
2022-11-21T07:41:43.813Z,5
2022-11-21T07:42:43.820Z,5
2022-11-21T07:43:43.563Z,5
2022-11-21T07:44:43.462Z,5
2022-11-21T07:45:43.253Z,5
2022-11-21T07:46:43.001Z,10
2022-11-21T07:47:43.508Z,10
2022-11-21T07:48:43.613Z,10
2022-11-21T07:49:43.543Z,10
2022-11-21T07:50:43.971Z,10
2022-11-21T07:51:43.674Z,10
2022-11-21T07:52:43.624Z,10
2022-11-21T07:53:43.096Z,10
2022-11-21T07:54:43.985Z,10
2022-11-21T07:55:49.732Z,10
2022-11-21T07:56:43.393Z,10
2022-11-21T07:57:43.134Z,10
2022-11-21T07:58:43.727Z,10
2022-11-21T07:59:43.987Z,10
2022-11-21T08:00:43.963Z,10
2022-11-21T08:01:50.690Z,10
2022-11-21T08:02:44.037Z,15
2022-11-21T08:03:43.758Z,15
2022-11-21T08:04:43.505Z,15
2022-11-21T08:05:43.549Z,15
2022-11-21T08:06:43.533Z,15
2022-11-21T08:07:44.411Z,15
2022-11-21T08:08:44.607Z,15
2022-11-21T08:09:49.205Z,15
2022-11-21T08:10:44.006Z,15
2022-11-21T08:11:44.110Z,15
2022-11-21T08:12:44.136Z,15
2022-11-21T08:13:43.624Z,15
2022-11-21T08:14:44.004Z,15
2022-11-21T08:15:44.263Z,15
2022-11-21T08:16:44.031Z,15
2022-11-21T08:17:44.053Z,15
2022-11-21T08:18:44.012Z,15
2022-11-21T08:19:44.025Z,15
2022-11-21T08:20:43.734Z,15
2022-11-21T08:21:43.739Z,15
2022-11-21T08:22:44.017Z,20
2022-11-21T08:23:44.128Z,20
2022-11-21T08:24:44.332Z,20
2022-11-21T08:25:43.807Z,20
2022-11-21T08:26:43.812Z,20
2022-11-21T08:27:44.082Z,20
2022-11-21T08:28:44.105Z,20
2022-11-21T08:29:44.383Z,20
2022-11-21T08:30:43.653Z,20
2022-11-21T08:31:44.134Z,20
2022-11-21T08:32:44.149Z,20
2022-11-21T08:33:44.170Z,20
2022-11-21T08:34:44.477Z,25
2022-11-21T08:35:44.037Z,25
2022-11-21T08:36:44.468Z,25
2022-11-21T08:37:44.230Z,25
2022-11-21T08:38:44.237Z,25
2022-11-21T08:39:44.637Z,25
2022-11-21T08:40:44.562Z,30
2022-11-21T08:41:44.543Z,30
2022-11-21T08:42:44.300Z,30
2022-11-21T08:43:44.094Z,30
2022-11-21T08:44:44.654Z,30
2022-11-21T08:45:44.340Z,30
2022-11-21T08:46:43.837Z,30
2022-11-21T08:47:44.146Z,30
2022-11-21T08:48:44.117Z,30
2022-11-21T08:49:44.407Z,30
2022-11-21T08:50:44.170Z,30
2022-11-21T08:51:44.696Z,30
2022-11-21T08:52:44.691Z,30
2022-11-21T08:53:44.451Z,30
2022-11-21T08:54:44.216Z,30
2022-11-21T08:55:44.849Z,30
2022-11-21T08:56:44.255Z,35
2022-11-21T08:57:44.513Z,30
2022-11-21T08:58:44.070Z,35
2022-11-21T08:59:44.548Z,30
2022-11-21T09:00:44.538Z,35
2022-11-21T09:01:44.622Z,35
2022-11-21T09:02:44.421Z,35
2022-11-21T09:03:44.613Z,35
2022-11-21T09:04:44.632Z,35
2022-11-21T09:05:44.114Z,35
2022-11-21T09:06:44.390Z,35
2022-11-21T09:07:44.590Z,35
2022-11-21T09:08:44.405Z,35
2022-11-21T09:09:44.699Z,35
2022-11-21T09:10:44.718Z,35
2022-11-21T09:11:45.975Z,35
2022-11-21T09:12:44.757Z,35
2022-11-21T09:13:45.492Z,35
2022-11-21T09:14:44.489Z,35
2022-11-21T09:15:44.503Z,35
2022-11-21T09:16:44.533Z,35
2022-11-21T09:17:44.792Z,40
2022-11-21T09:18:44.551Z,40
2022-11-21T09:19:44.834Z,40
2022-11-21T09:20:45.409Z,40
2022-11-21T09:21:45.964Z,40
2022-11-21T09:22:45.202Z,40
2022-11-21T09:23:45.174Z,40
2022-11-21T09:24:44.635Z,40
2022-11-21T09:25:45.344Z,40
2022-11-21T09:26:44.670Z,40
2022-11-21T09:27:45.043Z,40
2022-11-21T09:28:45.249Z,40
2022-11-21T09:29:49.577Z,45
2022-11-21T09:30:45.007Z,45
2022-11-21T09:31:45.969Z,45
2022-11-21T09:32:44.519Z,45
2022-11-21T09:33:45.043Z,45
2022-11-21T09:34:44.797Z,45
2022-11-21T09:35:44.588Z,45
2022-11-21T09:36:45.340Z,45
2022-11-21T09:37:45.353Z,45
2022-11-21T09:38:45.352Z,50
2022-11-21T09:39:44.850Z,50
2022-11-21T09:40:44.893Z,50
2022-11-21T09:41:45.440Z,50
2022-11-21T09:42:45.168Z,50
2022-11-21T09:43:45.929Z,50
2022-11-21T09:44:44.971Z,50
2022-11-21T09:45:45.201Z,45
2022-11-21T09:46:45.223Z,45
2022-11-21T09:47:45.489Z,45
2022-11-21T09:48:45.252Z,45
2022-11-21T09:49:45.258Z,45
2022-11-21T09:50:54.072Z,45
2022-11-21T09:51:46.114Z,45
2022-11-21T09:52:45.578Z,45
2022-11-21T09:53:45.320Z,45
2022-11-21T09:54:44.808Z,45
2022-11-21T09:55:44.824Z,50
2022-11-21T09:56:45.103Z,50
2022-11-21T09:57:45.390Z,50
2022-11-21T09:58:45.125Z,50
2022-11-21T09:59:47.094Z,50
2022-11-21T10:00:45.453Z,50
2022-11-21T10:01:47.145Z,50
2022-11-21T10:02:45.256Z,50
2022-11-21T10:03:45.215Z,50
2022-11-21T10:04:47.119Z,50
2022-11-21T10:05:46.981Z,50
2022-11-21T10:06:47.140Z,50
2022-11-21T10:07:45.597Z,50
2022-11-21T10:08:45.551Z,50
2022-11-21T10:09:45.302Z,50
2022-11-21T10:10:45.814Z,50
2022-11-21T10:11:45.329Z,50
2022-11-21T10:12:45.649Z,45
2022-11-21T10:13:45.631Z,45
2022-11-21T10:14:45.614Z,45
2022-11-21T10:15:47.098Z,45
2022-11-21T10:16:51.250Z,50
2022-11-21T10:17:45.684Z,55
2022-11-21T10:18:45.669Z,50
2022-11-21T10:19:45.171Z,45
2022-11-21T10:20:45.971Z,40
2022-11-21T10:21:45.974Z,35
2022-11-21T10:22:45.465Z,40
2022-11-21T10:23:45.603Z,40
2022-11-21T10:24:45.782Z,35
2022-11-21T10:25:45.829Z,35
2022-11-21T10:26:46.064Z,35
2022-11-21T10:27:45.801Z,40
2022-11-21T10:28:45.571Z,45
2022-11-21T10:29:45.579Z,45
2022-11-21T10:30:45.584Z,45
2022-11-21T10:31:46.258Z,45
2022-11-21T10:32:45.904Z,45
2022-11-21T10:33:45.901Z,60
2022-11-21T10:34:46.177Z,60
2022-11-21T10:35:45.936Z,55
2022-11-21T10:36:45.683Z,55
2022-11-21T10:37:45.711Z,55
2022-11-21T10:38:45.998Z,55
2022-11-21T10:39:45.725Z,55
2022-11-21T10:40:45.986Z,55
2022-11-21T10:41:46.261Z,55
2022-11-21T10:42:46.025Z,50
2022-11-21T10:43:46.035Z,45
2022-11-21T10:44:45.813Z,45
2022-11-21T10:45:45.804Z,45
2022-11-21T10:46:46.074Z,45
2022-11-21T10:47:46.496Z,45
2022-11-21T10:48:46.490Z,45
2022-11-21T10:49:46.125Z,50
2022-11-21T10:50:46.138Z,55
2022-11-21T10:51:47.137Z,45
2022-11-21T10:52:46.168Z,40
2022-11-21T10:53:47.091Z,45
2022-11-21T10:54:46.477Z,45
2022-11-21T10:55:47.024Z,45
2022-11-21T10:56:46.240Z,40
2022-11-21T10:57:46.505Z,40
2022-11-21T10:58:46.264Z,35
2022-11-21T10:59:47.071Z,35
2022-11-21T11:00:46.033Z,35
2022-11-21T11:01:45.532Z,40
2022-11-21T11:02:47.064Z,45
2022-11-21T11:04:29.746Z,50
2022-11-21T11:05:02.132Z,50
2022-11-21T11:05:54.157Z,50
2022-11-21T11:06:54.152Z,60
2022-11-21T11:07:55.011Z,60
2022-11-21T11:08:54.178Z,55
2022-11-21T11:09:54.189Z,55
2022-11-21T11:10:54.481Z,55
2022-11-21T11:11:55.216Z,55
2022-11-21T11:12:54.254Z,55
2022-11-21T11:13:57.903Z,55
2022-11-21T11:14:54.534Z,50
2022-11-21T11:15:54.791Z,50
2022-11-21T11:16:54.563Z,50
2022-11-21T11:17:55.343Z,50
2022-11-21T11:18:54.616Z,50
2022-11-21T11:19:55.604Z,55
2022-11-21T11:20:54.892Z,55
2022-11-21T11:21:54.639Z,60
2022-11-21T11:22:55.379Z,55
2022-11-21T11:23:54.663Z,55
2022-11-21T11:25:00.652Z,55
2022-11-21T11:25:54.643Z,55
2022-11-21T11:26:55.537Z,55
2022-11-21T11:27:54.186Z,55
2022-11-21T11:28:54.927Z,60
2022-11-21T11:29:55.711Z,55
2022-11-21T11:30:54.756Z,60
2022-11-21T11:31:54.986Z,60
2022-11-21T11:32:55.358Z,55
2022-11-21T11:33:55.055Z,55
2022-11-21T11:34:55.131Z,60
2022-11-21T11:35:54.634Z,55
2022-11-21T11:36:55.117Z,55
2022-11-21T11:37:55.106Z,50
2022-11-21T11:38:55.108Z,50
2022-11-21T11:39:54.911Z,50
2022-11-21T11:40:54.787Z,50
2022-11-21T11:41:55.157Z,50
2022-11-21T11:42:54.925Z,50
2022-11-21T11:43:55.231Z,50
2022-11-21T11:44:55.203Z,45
2022-11-21T11:45:56.304Z,45
2022-11-21T11:46:54.718Z,45
2022-11-21T11:48:03.235Z,50
2022-11-21T11:49:28.402Z,50
2022-11-21T11:49:54.760Z,55
2022-11-21T11:50:55.096Z,55
2022-11-21T11:51:56.724Z,55
2022-11-21T11:52:56.711Z,55
2022-11-21T11:54:02.257Z,55
2022-11-21T11:54:55.969Z,55
2022-11-21T11:55:56.390Z,50
2022-11-21T11:56:56.328Z,50
2022-11-21T11:57:56.522Z,50
2022-11-21T11:58:56.548Z,50
2022-11-21T11:59:56.183Z,50
2022-11-21T12:00:54.935Z,50
2022-11-21T12:01:55.289Z,50
2022-11-21T12:02:56.255Z,45
2022-11-21T12:04:02.975Z,45
2022-11-21T12:04:56.372Z,40
2022-11-21T12:05:56.417Z,40
2022-11-21T12:08:47.469Z,45
2022-11-21T12:08:57.798Z,45
2022-11-21T12:09:58.196Z,45
2022-11-21T12:10:58.074Z,40
2022-11-21T12:11:57.791Z,40
2022-11-21T12:12:59.010Z,40
2022-11-21T12:13:57.826Z,35
2022-11-21T12:14:56.782Z,35
2022-11-21T12:16:13.026Z,35
2022-11-21T12:16:57.349Z,35
2022-11-21T12:17:57.619Z,30
2022-11-21T12:18:57.896Z,30
2022-11-21T12:19:57.899Z,35
2022-11-21T12:20:59.222Z,35
2022-11-21T12:21:57.422Z,35
2022-11-21T12:22:57.952Z,35
2022-11-21T12:23:58.114Z,35
2022-11-21T12:24:57.745Z,40
2022-11-21T12:25:57.742Z,45
2022-11-21T12:26:57.746Z,50
2022-11-21T12:27:57.501Z,50
2022-11-21T12:28:57.777Z,50
2022-11-21T12:29:58.057Z,55
2022-11-21T12:30:57.822Z,55
2022-11-21T12:31:58.082Z,60
2022-11-21T12:32:58.770Z,60
2022-11-21T12:33:57.876Z,60
2022-11-21T12:34:57.870Z,55
2022-11-21T12:36:18.742Z,50
2022-11-21T12:36:57.901Z,50
2022-11-21T12:37:57.643Z,50
2022-11-21T12:38:58.131Z,50
2022-11-21T12:39:58.316Z,50
2022-11-21T12:40:59.074Z,55
2022-11-21T12:41:57.981Z,55
2022-11-21T12:42:58.012Z,55
2022-11-21T12:44:05.004Z,60
2022-11-21T12:44:58.009Z,65
2022-11-21T12:45:58.036Z,65
2022-11-21T12:46:58.064Z,65
2022-11-21T12:47:57.800Z,70
2022-11-21T12:48:58.339Z,65
2022-11-21T12:50:03.987Z,55
2022-11-21T12:50:58.880Z,50
2022-11-21T12:51:58.364Z,45
2022-11-21T12:52:57.881Z,40
2022-11-21T12:53:58.400Z,35
2022-11-21T12:54:59.042Z,35
2022-11-21T12:55:58.531Z,35
2022-11-21T12:56:59.108Z,35
2022-11-21T12:57:58.197Z,40
2022-11-21T12:58:58.309Z,35
2022-11-21T12:59:59.281Z,25
2022-11-21T13:00:59.067Z,20
2022-11-21T13:01:58.309Z,20
2022-11-21T13:02:59.190Z,20
2022-11-21T13:03:58.397Z,20
2022-11-21T13:04:58.561Z,15
2022-11-21T13:05:58.328Z,15
2022-11-21T13:06:58.083Z,15
2022-11-21T13:07:58.394Z,15
2022-11-21T13:08:58.542Z,10
2022-11-21T13:09:58.396Z,10
2022-11-21T13:10:58.386Z,10
2022-11-21T13:11:58.770Z,10
2022-11-21T13:12:58.464Z,10
2022-11-21T13:13:58.439Z,10
2022-11-21T13:14:58.024Z,10
2022-11-21T13:15:58.883Z,10
2022-11-21T13:16:58.478Z,10
2022-11-21T13:17:59.287Z,10
2022-11-21T13:18:58.251Z,15
2022-11-21T13:19:58.811Z,15
2022-11-21T13:20:59.079Z,15
2022-11-21T13:21:58.824Z,15
2022-11-21T13:22:58.310Z,20
2022-11-21T13:23:58.828Z,20
2022-11-21T13:24:58.678Z,20
2022-11-21T13:25:58.636Z,20
2022-11-21T13:26:58.359Z,20
2022-11-21T13:27:59.754Z,20
2022-11-21T13:28:59.079Z,20
2022-11-21T13:29:58.678Z,20
2022-11-21T13:30:58.687Z,15
2022-11-21T13:31:58.706Z,10
2022-11-21T13:32:58.982Z,10
2022-11-21T13:33:58.479Z,10
2022-11-21T13:34:58.495Z,10
2022-11-21T13:36:00.129Z,10
2022-11-21T13:36:58.796Z,10
2022-11-21T13:37:58.560Z,10
2022-11-21T13:38:59.113Z,10
2022-11-21T13:39:58.826Z,10
2022-11-21T13:40:59.035Z,15
2022-11-21T13:41:58.861Z,15
2022-11-21T13:43:42.720Z,15
2022-11-21T13:43:58.625Z,15
2022-11-21T13:44:58.939Z,15
2022-11-21T13:45:58.654Z,15
2022-11-21T13:46:58.917Z,20
2022-11-21T13:48:05.346Z,20
2022-11-21T13:48:58.838Z,15
2022-11-21T13:49:59.033Z,15
2022-11-21T13:50:59.291Z,10
2022-11-21T13:51:59.009Z,10
2022-11-21T13:52:59.285Z,10
2022-11-21T13:54:06.676Z,10
2022-11-21T13:54:59.051Z,10
2022-11-21T13:55:59.063Z,10
2022-11-21T13:56:59.058Z,10
2022-11-21T13:57:59.009Z,10
2022-11-21T13:58:59.345Z,10
2022-11-21T13:59:59.390Z,15
2022-11-21T14:01:01.070Z,15
2022-11-21T14:01:59.570Z,10
2022-11-21T14:02:59.170Z,15
2022-11-21T14:03:59.218Z,10
2022-11-21T14:04:58.931Z,10
2022-11-21T14:05:58.947Z,10
2022-11-21T14:06:59.692Z,10
2022-11-21T14:08:00.083Z,10
2022-11-21T14:08:59.501Z,10
2022-11-21T14:09:59.256Z,10
2022-11-21T14:11:00.825Z,10
2022-11-21T14:11:59.604Z,10
2022-11-21T14:12:59.301Z,10
2022-11-21T14:13:59.307Z,10
2022-11-21T14:14:59.672Z,10
2022-11-21T14:15:59.390Z,10
2022-11-21T14:16:59.380Z,10
2022-11-21T14:17:59.392Z,10
2022-11-21T14:18:59.669Z,5
2022-11-21T14:19:59.416Z,5
2022-11-21T14:20:59.687Z,5
2022-11-21T14:21:59.177Z,5
2022-11-21T14:22:59.442Z,5
2022-11-21T14:23:59.478Z,5
2022-11-21T14:24:59.728Z,5
2022-11-21T14:25:59.502Z,5
2022-11-21T14:26:59.324Z,5
2022-11-21T14:27:59.514Z,5
2022-11-21T14:28:59.555Z,5
2022-11-21T14:29:59.824Z,5
2022-11-21T14:31:00.765Z,5
2022-11-21T14:31:59.070Z,5
2022-11-21T14:33:04.043Z,5
2022-11-21T14:33:59.626Z,5